FAMM/MBD METAR and TAF weather

Enter ICAO airport designator
Station Type Date Time Source
FAMM METAR 2021/07/26 15:00 UTC NOAA

FAMM 261500Z AUTO 01007KT //// // ////// 16/M01 Q1029


Station Type Date Time Source
FAMM Decoded METAR 2021/07/26 15:00 UTC NOAA

Mafikeng Intl. Ad, South Africa (FAMM) 25-47S 025-32E 1300M
Jul 26, 2021 - 11:00 AM EDT / 2021.07.26 1500 UTC
Wind: from the N (010 degrees) at 8 MPH (7 KT):0
Temperature: 60 F (16 C)
Dew Point: 30 F (-1 C)
Relative Humidity: 31%
Pressure (altimeter): 30.39 in. Hg (1029 hPa)
ob: FAMM 261500Z AUTO 01007KT //// // ////// 16/M01 Q1029
cycle: 15

Station Type Date Time Source
FAMM TAF 2021/06/04 04:45 UTC NOAA

TAF TAF FAMM 040440Z 0404/0418 VRB03KT CAVOK TX20/0412Z TN02/0405Z
FM040800 05008KT 9999 SCT040
BECMG 0410/0412 VRB03KT CAVOK

Example: see airport list